sensor_id;sensor_type;location;lat;lon;timestamp;P1;durP1;ratioP1;P2;durP2;ratioP2
2219;SDS011;1116;51.502;7.414;2024-01-30T00:00:40;14.50;;;5.00;;
2219;SDS011;1116;51.502;7.414;2024-01-30T00:03:10;14.18;;;5.40;;
2219;SDS011;1116;51.502;7.414;2024-01-30T00:05:41;8.07;;;4.63;;
2219;SDS011;1116;51.502;7.414;2024-01-30T00:08:11;6.80;;;4.78;;
2219;SDS011;1116;51.502;7.414;2024-01-30T00:10:41;12.63;;;5.18;;
2219;SDS011;1116;51.502;7.414;2024-01-30T00:13:11;10.75;;;5.22;;
2219;SDS011;1116;51.502;7.414;2024-01-30T00:15:46;9.32;;;5.20;;
2219;SDS011;1116;51.502;7.414;2024-01-30T00:18:18;9.98;;;5.28;;
2219;SDS011;1116;51.502;7.414;2024-01-30T00:20:48;8.27;;;4.47;;
2219;SDS011;1116;51.502;7.414;2024-01-30T00:23:18;13.30;;;6.43;;
2219;SDS011;1116;51.502;7.414;2024-01-30T00:25:48;10.90;;;5.25;;
2219;SDS011;1116;51.502;7.414;2024-01-30T00:28:19;11.02;;;5.50;;
2219;SDS011;1116;51.502;7.414;2024-01-30T00:30:52;10.18;;;4.93;;
2219;SDS011;1116;51.502;7.414;2024-01-30T00:33:22;11.90;;;5.50;;
2219;SDS011;1116;51.502;7.414;2024-01-30T00:35:52;9.90;;;5.07;;
2219;SDS011;1116;51.502;7.414;2024-01-30T00:38:22;10.82;;;5.53;;
2219;SDS011;1116;51.502;7.414;2024-01-30T00:40:52;9.90;;;5.35;;
2219;SDS011;1116;51.502;7.414;2024-01-30T00:43:22;10.50;;;5.35;;
2219;SDS011;1116;51.502;7.414;2024-01-30T00:45:55;10.40;;;4.88;;
2219;SDS011;1116;51.502;7.414;2024-01-30T00:48:25;12.10;;;5.57;;
2219;SDS011;1116;51.502;7.414;2024-01-30T00:50:55;11.73;;;6.60;;
2219;SDS011;1116;51.502;7.414;2024-01-30T00:53:25;15.27;;;5.95;;
2219;SDS011;1116;51.502;7.414;2024-01-30T00:55:55;16.88;;;5.95;;
2219;SDS011;1116;51.502;7.414;2024-01-30T00:58:25;10.60;;;5.75;;
2219;SDS011;1116;51.502;7.414;2024-01-30T01:00:58;12.95;;;5.53;;
2219;SDS011;1116;51.502;7.414;2024-01-30T01:03:29;10.90;;;4.88;;
2219;SDS011;1116;51.502;7.414;2024-01-30T01:05:59;12.02;;;6.13;;
2219;SDS011;1116;51.502;7.414;2024-01-30T01:08:29;10.50;;;5.40;;
2219;SDS011;1116;51.502;7.414;2024-01-30T01:10:59;13.40;;;5.13;;
2219;SDS011;1116;51.502;7.414;2024-01-30T01:13:30;10.88;;;5.10;;
2219;SDS011;1116;51.502;7.414;2024-01-30T01:16:03;11.15;;;5.40;;
2219;SDS011;1116;51.502;7.414;2024-01-30T01:18:33;12.90;;;6.45;;
2219;SDS011;1116;51.502;7.414;2024-01-30T01:21:03;11.52;;;5.82;;
2219;SDS011;1116;51.502;7.414;2024-01-30T01:23:34;11.38;;;5.72;;
2219;SDS011;1116;51.502;7.414;2024-01-30T01:26:04;10.90;;;6.13;;
2219;SDS011;1116;51.502;7.414;2024-01-30T01:28:34;10.77;;;5.32;;
2219;SDS011;1116;51.502;7.414;2024-01-30T01:31:07;12.98;;;5.95;;
2219;SDS011;1116;51.502;7.414;2024-01-30T01:33:38;9.05;;;5.30;;
2219;SDS011;1116;51.502;7.414;2024-01-30T01:36:08;12.68;;;5.15;;
2219;SDS011;1116;51.502;7.414;2024-01-30T01:38:38;14.20;;;5.90;;
2219;SDS011;1116;51.502;7.414;2024-01-30T01:41:08;10.68;;;5.60;;
2219;SDS011;1116;51.502;7.414;2024-01-30T01:43:38;11.30;;;5.68;;
2219;SDS011;1116;51.502;7.414;2024-01-30T01:46:11;13.65;;;5.57;;
2219;SDS011;1116;51.502;7.414;2024-01-30T01:48:41;21.08;;;5.85;;
2219;SDS011;1116;51.502;7.414;2024-01-30T01:51:13;12.90;;;5.65;;
2219;SDS011;1116;51.502;7.414;2024-01-30T01:53:44;12.38;;;6.15;;
2219;SDS011;1116;51.502;7.414;2024-01-30T01:56:15;11.43;;;5.85;;
2219;SDS011;1116;51.502;7.414;2024-01-30T01:58:45;11.75;;;6.00;;
2219;SDS011;1116;51.502;7.414;2024-01-30T02:01:19;15.18;;;5.30;;
2219;SDS011;1116;51.502;7.414;2024-01-30T02:03:50;9.52;;;6.03;;
2219;SDS011;1116;51.502;7.414;2024-01-30T02:06:20;20.80;;;6.32;;
2219;SDS011;1116;51.502;7.414;2024-01-30T02:08:51;11.18;;;5.50;;
2219;SDS011;1116;51.502;7.414;2024-01-30T02:11:22;9.80;;;5.68;;
2219;SDS011;1116;51.502;7.414;2024-01-30T02:13:52;17.88;;;5.85;;
2219;SDS011;1116;51.502;7.414;2024-01-30T02:16:25;10.40;;;5.28;;
2219;SDS011;1116;51.502;7.414;2024-01-30T02:18:56;12.73;;;5.40;;
2219;SDS011;1116;51.502;7.414;2024-01-30T02:21:29;13.75;;;5.40;;
2219;SDS011;1116;51.502;7.414;2024-01-30T02:23:59;14.63;;;5.68;;
2219;SDS011;1116;51.502;7.414;2024-01-30T02:26:33;11.65;;;5.50;;
2219;SDS011;1116;51.502;7.414;2024-01-30T02:29:03;12.40;;;5.30;;
2219;SDS011;1116;51.502;7.414;2024-01-30T02:31:33;15.48;;;6.75;;
2219;SDS011;1116;51.502;7.414;2024-01-30T02:34:03;9.52;;;5.78;;
2219;SDS011;1116;51.502;7.414;2024-01-30T02:36:36;11.35;;;6.13;;
2219;SDS011;1116;51.502;7.414;2024-01-30T02:39:06;10.10;;;5.25;;
2219;SDS011;1116;51.502;7.414;2024-01-30T02:41:36;12.80;;;5.90;;
2219;SDS011;1116;51.502;7.414;2024-01-30T02:44:06;10.88;;;5.38;;
2219;SDS011;1116;51.502;7.414;2024-01-30T02:46:36;8.95;;;4.60;;
2219;SDS011;1116;51.502;7.414;2024-01-30T02:49:06;11.60;;;5.70;;
2219;SDS011;1116;51.502;7.414;2024-01-30T02:51:39;8.30;;;4.82;;
2219;SDS011;1116;51.502;7.414;2024-01-30T02:54:09;13.50;;;5.30;;
2219;SDS011;1116;51.502;7.414;2024-01-30T02:56:39;9.32;;;5.15;;
2219;SDS011;1116;51.502;7.414;2024-01-30T02:59:09;13.88;;;5.15;;
2219;SDS011;1116;51.502;7.414;2024-01-30T03:01:42;12.57;;;5.40;;
2219;SDS011;1116;51.502;7.414;2024-01-30T03:04:14;10.90;;;6.13;;
2219;SDS011;1116;51.502;7.414;2024-01-30T03:06:47;8.15;;;4.85;;
2219;SDS011;1116;51.502;7.414;2024-01-30T03:09:18;13.98;;;6.15;;
2219;SDS011;1116;51.502;7.414;2024-01-30T03:11:48;11.60;;;4.88;;
2219;SDS011;1116;51.502;7.414;2024-01-30T03:14:18;11.07;;;5.28;;
2219;SDS011;1116;51.502;7.414;2024-01-30T03:16:48;8.52;;;5.15;;
2219;SDS011;1116;51.502;7.414;2024-01-30T03:19:18;7.97;;;4.40;;
2219;SDS011;1116;51.502;7.414;2024-01-30T03:21:50;11.45;;;4.80;;
2219;SDS011;1116;51.502;7.414;2024-01-30T03:24:20;9.63;;;6.18;;
2219;SDS011;1116;51.502;7.414;2024-01-30T03:26:50;8.10;;;4.88;;
2219;SDS011;1116;51.502;7.414;2024-01-30T03:29:20;10.10;;;5.20;;
2219;SDS011;1116;51.502;7.414;2024-01-30T03:31:50;10.70;;;4.60;;
2219;SDS011;1116;51.502;7.414;2024-01-30T03:34:20;10.90;;;5.35;;
2219;SDS011;1116;51.502;7.414;2024-01-30T03:36:53;13.20;;;5.10;;
2219;SDS011;1116;51.502;7.414;2024-01-30T03:39:24;11.68;;;5.53;;
2219;SDS011;1116;51.502;7.414;2024-01-30T03:41:54;10.40;;;4.75;;
2219;SDS011;1116;51.502;7.414;2024-01-30T03:44:24;9.48;;;5.10;;
2219;SDS011;1116;51.502;7.414;2024-01-30T03:46:54;12.20;;;4.57;;
2219;SDS011;1116;51.502;7.414;2024-01-30T03:49:23;8.15;;;4.03;;
2219;SDS011;1116;51.502;7.414;2024-01-30T03:51:56;6.28;;;3.90;;
2219;SDS011;1116;51.502;7.414;2024-01-30T03:54:27;8.48;;;5.05;;
2219;SDS011;1116;51.502;7.414;2024-01-30T03:57:00;9.98;;;4.75;;
2219;SDS011;1116;51.502;7.414;2024-01-30T03:59:30;10.52;;;5.07;;
2219;SDS011;1116;51.502;7.414;2024-01-30T04:02:00;12.25;;;5.30;;
2219;SDS011;1116;51.502;7.414;2024-01-30T04:04:30;10.43;;;5.70;;
2219;SDS011;1116;51.502;7.414;2024-01-30T04:07:03;8.82;;;4.03;;
2219;SDS011;1116;51.502;7.414;2024-01-30T04:09:33;7.97;;;3.58;;
2219;SDS011;1116;51.502;7.414;2024-01-30T04:12:03;8.57;;;4.38;;
2219;SDS011;1116;51.502;7.414;2024-01-30T04:14:33;8.52;;;4.90;;
2219;SDS011;1116;51.502;7.414;2024-01-30T04:17:03;10.25;;;4.75;;
2219;SDS011;1116;51.502;7.414;2024-01-30T04:19:36;8.30;;;4.50;;
2219;SDS011;1116;51.502;7.414;2024-01-30T04:22:10;12.02;;;4.60;;
2219;SDS011;1116;51.502;7.414;2024-01-30T04:24:40;8.18;;;4.30;;
2219;SDS011;1116;51.502;7.414;2024-01-30T04:27:10;8.00;;;4.13;;
2219;SDS011;1116;51.502;7.414;2024-01-30T04:29:40;8.77;;;4.47;;
2219;SDS011;1116;51.502;7.414;2024-01-30T04:32:10;9.05;;;4.70;;
2219;SDS011;1116;51.502;7.414;2024-01-30T04:34:37;7.10;;;4.05;;
2219;SDS011;1116;51.502;7.414;2024-01-30T04:37:10;15.00;;;4.70;;
2219;SDS011;1116;51.502;7.414;2024-01-30T04:39:40;10.10;;;5.00;;
2219;SDS011;1116;51.502;7.414;2024-01-30T04:42:11;7.07;;;4.07;;
2219;SDS011;1116;51.502;7.414;2024-01-30T04:44:41;11.30;;;5.05;;
2219;SDS011;1116;51.502;7.414;2024-01-30T04:47:11;6.57;;;3.97;;
2219;SDS011;1116;51.502;7.414;2024-01-30T04:49:41;8.52;;;4.03;;
2219;SDS011;1116;51.502;7.414;2024-01-30T04:52:14;8.43;;;3.78;;
2219;SDS011;1116;51.502;7.414;2024-01-30T04:54:44;14.57;;;4.57;;
2219;SDS011;1116;51.502;7.414;2024-01-30T04:57:17;9.93;;;4.60;;
2219;SDS011;1116;51.502;7.414;2024-01-30T04:59:47;7.95;;;4.30;;
2219;SDS011;1116;51.502;7.414;2024-01-30T05:02:17;12.10;;;5.00;;
2219;SDS011;1116;51.502;7.414;2024-01-30T05:04:48;6.47;;;3.65;;
2219;SDS011;1116;51.502;7.414;2024-01-30T05:07:20;8.55;;;4.75;;
2219;SDS011;1116;51.502;7.414;2024-01-30T05:09:51;6.70;;;4.45;;
2219;SDS011;1116;51.502;7.414;2024-01-30T05:12:24;11.25;;;4.28;;
2219;SDS011;1116;51.502;7.414;2024-01-30T05:14:54;8.70;;;4.10;;
2219;SDS011;1116;51.502;7.414;2024-01-30T05:17:24;5.50;;;3.80;;
2219;SDS011;1116;51.502;7.414;2024-01-30T05:19:54;9.88;;;4.35;;
2219;SDS011;1116;51.502;7.414;2024-01-30T05:22:28;7.88;;;4.40;;
2219;SDS011;1116;51.502;7.414;2024-01-30T05:24:58;7.05;;;4.07;;
2219;SDS011;1116;51.502;7.414;2024-01-30T05:27:29;8.18;;;4.13;;
2219;SDS011;1116;51.502;7.414;2024-01-30T05:29:59;10.77;;;4.55;;
2219;SDS011;1116;51.502;7.414;2024-01-30T05:32:30;13.30;;;4.13;;
2219;SDS011;1116;51.502;7.414;2024-01-30T05:35:00;8.15;;;4.05;;
2219;SDS011;1116;51.502;7.414;2024-01-30T05:37:33;8.60;;;3.25;;
2219;SDS011;1116;51.502;7.414;2024-01-30T05:40:03;8.63;;;4.47;;
2219;SDS011;1116;51.502;7.414;2024-01-30T05:42:34;10.05;;;4.47;;
2219;SDS011;1116;51.502;7.414;2024-01-30T05:45:04;9.65;;;4.50;;
2219;SDS011;1116;51.502;7.414;2024-01-30T05:47:35;11.73;;;4.82;;
2219;SDS011;1116;51.502;7.414;2024-01-30T05:50:06;6.68;;;4.28;;
2219;SDS011;1116;51.502;7.414;2024-01-30T05:52:39;10.65;;;4.20;;
2219;SDS011;1116;51.502;7.414;2024-01-30T05:55:10;8.10;;;4.15;;
2219;SDS011;1116;51.502;7.414;2024-01-30T05:57:40;8.27;;;4.00;;
2219;SDS011;1116;51.502;7.414;2024-01-30T06:00:10;11.82;;;4.60;;
2219;SDS011;1116;51.502;7.414;2024-01-30T06:02:41;7.65;;;4.13;;
2219;SDS011;1116;51.502;7.414;2024-01-30T06:05:11;6.82;;;4.35;;
2219;SDS011;1116;51.502;7.414;2024-01-30T06:07:43;9.63;;;4.13;;
2219;SDS011;1116;51.502;7.414;2024-01-30T06:10:14;12.93;;;5.00;;
2219;SDS011;1116;51.502;7.414;2024-01-30T06:12:44;11.00;;;4.90;;
2219;SDS011;1116;51.502;7.414;2024-01-30T06:15:14;7.82;;;4.30;;
2219;SDS011;1116;51.502;7.414;2024-01-30T06:17:44;12.98;;;6.90;;
2219;SDS011;1116;51.502;7.414;2024-01-30T06:20:15;9.27;;;4.50;;
2219;SDS011;1116;51.502;7.414;2024-01-30T06:22:48;13.85;;;4.68;;
2219;SDS011;1116;51.502;7.414;2024-01-30T06:25:18;6.57;;;3.65;;
2219;SDS011;1116;51.502;7.414;2024-01-30T06:27:48;7.20;;;4.38;;
2219;SDS011;1116;51.502;7.414;2024-01-30T06:30:18;8.43;;;3.78;;
2219;SDS011;1116;51.502;7.414;2024-01-30T06:32:48;7.72;;;4.25;;
2219;SDS011;1116;51.502;7.414;2024-01-30T06:35:18;9.10;;;4.75;;
2219;SDS011;1116;51.502;7.414;2024-01-30T06:37:50;10.80;;;4.40;;
2219;SDS011;1116;51.502;7.414;2024-01-30T06:40:20;8.48;;;4.72;;
2219;SDS011;1116;51.502;7.414;2024-01-30T06:42:50;9.95;;;5.20;;
2219;SDS011;1116;51.502;7.414;2024-01-30T06:45:20;8.90;;;4.28;;
2219;SDS011;1116;51.502;7.414;2024-01-30T06:47:50;9.57;;;4.22;;
2219;SDS011;1116;51.502;7.414;2024-01-30T06:50:20;7.72;;;4.32;;
2219;SDS011;1116;51.502;7.414;2024-01-30T06:52:53;8.18;;;3.92;;
2219;SDS011;1116;51.502;7.414;2024-01-30T06:55:23;12.30;;;5.50;;
2219;SDS011;1116;51.502;7.414;2024-01-30T06:57:53;5.95;;;3.80;;
2219;SDS011;1116;51.502;7.414;2024-01-30T07:00:23;11.88;;;3.65;;
2219;SDS011;1116;51.502;7.414;2024-01-30T07:02:53;4.80;;;3.63;;
2219;SDS011;1116;51.502;7.414;2024-01-30T07:05:23;7.18;;;4.13;;
2219;SDS011;1116;51.502;7.414;2024-01-30T07:07:55;10.63;;;4.20;;
2219;SDS011;1116;51.502;7.414;2024-01-30T07:10:26;7.65;;;4.13;;
2219;SDS011;1116;51.502;7.414;2024-01-30T07:12:56;6.68;;;4.18;;
2219;SDS011;1116;51.502;7.414;2024-01-30T07:15:26;8.52;;;4.30;;
2219;SDS011;1116;51.502;7.414;2024-01-30T07:17:56;10.38;;;4.40;;
2219;SDS011;1116;51.502;7.414;2024-01-30T07:20:26;15.10;;;3.85;;
2219;SDS011;1116;51.502;7.414;2024-01-30T07:23:00;7.45;;;3.72;;
2219;SDS011;1116;51.502;7.414;2024-01-30T07:25:30;9.52;;;4.00;;
2219;SDS011;1116;51.502;7.414;2024-01-30T07:28:03;7.82;;;4.60;;
2219;SDS011;1116;51.502;7.414;2024-01-30T07:30:33;8.90;;;4.70;;
2219;SDS011;1116;51.502;7.414;2024-01-30T07:33:03;6.25;;;3.35;;
2219;SDS011;1116;51.502;7.414;2024-01-30T07:35:35;6.88;;;4.15;;
2219;SDS011;1116;51.502;7.414;2024-01-30T07:38:08;7.97;;;4.72;;
2219;SDS011;1116;51.502;7.414;2024-01-30T07:40:38;8.68;;;3.83;;
2219;SDS011;1116;51.502;7.414;2024-01-30T07:43:08;8.05;;;3.95;;
2219;SDS011;1116;51.502;7.414;2024-01-30T07:45:38;10.88;;;4.18;;
2219;SDS011;1116;51.502;7.414;2024-01-30T07:48:08;8.98;;;3.55;;
2219;SDS011;1116;51.502;7.414;2024-01-30T07:50:38;10.23;;;4.45;;
2219;SDS011;1116;51.502;7.414;2024-01-30T07:53:11;6.85;;;4.00;;
2219;SDS011;1116;51.502;7.414;2024-01-30T07:55:41;6.97;;;4.05;;
2219;SDS011;1116;51.502;7.414;2024-01-30T07:58:10;7.63;;;4.05;;
2219;SDS011;1116;51.502;7.414;2024-01-30T08:00:40;14.55;;;4.45;;
2219;SDS011;1116;51.502;7.414;2024-01-30T08:03:10;8.32;;;4.57;;
2219;SDS011;1116;51.502;7.414;2024-01-30T08:05:42;9.10;;;3.95;;
2219;SDS011;1116;51.502;7.414;2024-01-30T08:08:15;6.03;;;3.83;;
2219;SDS011;1116;51.502;7.414;2024-01-30T08:10:45;7.13;;;4.15;;
2219;SDS011;1116;51.502;7.414;2024-01-30T08:13:16;14.35;;;4.10;;
2219;SDS011;1116;51.502;7.414;2024-01-30T08:15:46;9.55;;;4.15;;
2219;SDS011;1116;51.502;7.414;2024-01-30T08:18:16;13.00;;;5.03;;
2219;SDS011;1116;51.502;7.414;2024-01-30T08:20:46;6.50;;;4.18;;
2219;SDS011;1116;51.502;7.414;2024-01-30T08:23:18;7.75;;;4.57;;
2219;SDS011;1116;51.502;7.414;2024-01-30T08:25:48;10.30;;;4.05;;
2219;SDS011;1116;51.502;7.414;2024-01-30T08:28:18;8.05;;;4.00;;
2219;SDS011;1116;51.502;7.414;2024-01-30T08:30:48;13.98;;;4.57;;
2219;SDS011;1116;51.502;7.414;2024-01-30T08:33:18;7.03;;;3.70;;
2219;SDS011;1116;51.502;7.414;2024-01-30T08:35:48;9.55;;;4.50;;
2219;SDS011;1116;51.502;7.414;2024-01-30T08:38:20;7.22;;;4.13;;
2219;SDS011;1116;51.502;7.414;2024-01-30T08:40:50;6.97;;;4.03;;
2219;SDS011;1116;51.502;7.414;2024-01-30T08:43:21;11.18;;;4.00;;
2219;SDS011;1116;51.502;7.414;2024-01-30T08:45:51;9.93;;;4.13;;
2219;SDS011;1116;51.502;7.414;2024-01-30T08:48:22;8.20;;;4.60;;
2219;SDS011;1116;51.502;7.414;2024-01-30T08:50:52;8.00;;;4.03;;
2219;SDS011;1116;51.502;7.414;2024-01-30T08:53:25;7.65;;;4.18;;
2219;SDS011;1116;51.502;7.414;2024-01-30T08:55:55;10.43;;;4.32;;
2219;SDS011;1116;51.502;7.414;2024-01-30T08:58:25;11.63;;;4.60;;
2219;SDS011;1116;51.502;7.414;2024-01-30T09:00:56;10.23;;;3.88;;
2219;SDS011;1116;51.502;7.414;2024-01-30T09:03:44;7.55;;;4.00;;
2219;SDS011;1116;51.502;7.414;2024-01-30T09:06:16;6.85;;;4.25;;
2219;SDS011;1116;51.502;7.414;2024-01-30T09:08:49;10.65;;;4.50;;
2219;SDS011;1116;51.502;7.414;2024-01-30T09:11:19;8.73;;;4.13;;
2219;SDS011;1116;51.502;7.414;2024-01-30T09:13:49;9.40;;;4.25;;
2219;SDS011;1116;51.502;7.414;2024-01-30T09:16:18;9.75;;;4.68;;
2219;SDS011;1116;51.502;7.414;2024-01-30T09:18:48;7.40;;;4.05;;
2219;SDS011;1116;51.502;7.414;2024-01-30T09:21:19;10.43;;;5.20;;
2219;SDS011;1116;51.502;7.414;2024-01-30T09:23:53;9.30;;;4.63;;
2219;SDS011;1116;51.502;7.414;2024-01-30T09:26:24;9.88;;;4.88;;
2219;SDS011;1116;51.502;7.414;2024-01-30T09:28:54;7.15;;;4.30;;
2219;SDS011;1116;51.502;7.414;2024-01-30T09:31:24;9.15;;;4.68;;
2219;SDS011;1116;51.502;7.414;2024-01-30T09:33:55;9.82;;;5.20;;
2219;SDS011;1116;51.502;7.414;2024-01-30T09:36:25;9.00;;;4.65;;
2219;SDS011;1116;51.502;7.414;2024-01-30T09:38:58;8.75;;;5.20;;
2219;SDS011;1116;51.502;7.414;2024-01-30T09:41:28;11.32;;;4.47;;
2219;SDS011;1116;51.502;7.414;2024-01-30T09:44:01;9.25;;;3.90;;
2219;SDS011;1116;51.502;7.414;2024-01-30T09:46:32;11.55;;;4.70;;
2219;SDS011;1116;51.502;7.414;2024-01-30T09:49:04;14.98;;;4.60;;
2219;SDS011;1116;51.502;7.414;2024-01-30T09:51:35;9.73;;;4.75;;
2219;SDS011;1116;51.502;7.414;2024-01-30T09:54:09;9.00;;;4.68;;
2219;SDS011;1116;51.502;7.414;2024-01-30T09:56:40;13.57;;;4.13;;
2219;SDS011;1116;51.502;7.414;2024-01-30T09:59:12;7.63;;;4.15;;
2219;SDS011;1116;51.502;7.414;2024-01-30T10:01:42;9.07;;;4.30;;
2219;SDS011;1116;51.502;7.414;2024-01-30T10:04:12;9.65;;;4.35;;
2219;SDS011;1116;51.502;7.414;2024-01-30T10:06:42;9.43;;;4.78;;
2219;SDS011;1116;51.502;7.414;2024-01-30T10:09:15;9.20;;;4.85;;
2219;SDS011;1116;51.502;7.414;2024-01-30T10:11:45;9.55;;;4.55;;
2219;SDS011;1116;51.502;7.414;2024-01-30T10:14:17;9.02;;;4.95;;
2219;SDS011;1116;51.502;7.414;2024-01-30T10:16:47;9.30;;;4.32;;
2219;SDS011;1116;51.502;7.414;2024-01-30T10:19:18;10.35;;;4.80;;
2219;SDS011;1116;51.502;7.414;2024-01-30T10:21:48;9.05;;;4.35;;
2219;SDS011;1116;51.502;7.414;2024-01-30T10:24:23;10.45;;;4.32;;
2219;SDS011;1116;51.502;7.414;2024-01-30T10:26:56;8.27;;;4.30;;
2219;SDS011;1116;51.502;7.414;2024-01-30T10:29:26;6.28;;;3.88;;
2219;SDS011;1116;51.502;7.414;2024-01-30T10:31:58;10.30;;;4.38;;
2219;SDS011;1116;51.502;7.414;2024-01-30T10:34:29;11.05;;;4.32;;
2219;SDS011;1116;51.502;7.414;2024-01-30T10:37:03;5.35;;;3.78;;
2219;SDS011;1116;51.502;7.414;2024-01-30T10:39:45;6.70;;;3.40;;
2219;SDS011;1116;51.502;7.414;2024-01-30T10:42:17;9.18;;;4.13;;
2219;SDS011;1116;51.502;7.414;2024-01-30T10:44:56;9.63;;;4.30;;
2219;SDS011;1116;51.502;7.414;2024-01-30T10:47:30;8.93;;;4.25;;
2219;SDS011;1116;51.502;7.414;2024-01-30T10:50:00;10.27;;;3.83;;
2219;SDS011;1116;51.502;7.414;2024-01-30T10:52:31;6.05;;;3.92;;
2219;SDS011;1116;51.502;7.414;2024-01-30T10:55:04;11.43;;;4.70;;
2219;SDS011;1116;51.502;7.414;2024-01-30T10:57:36;6.00;;;3.70;;
2219;SDS011;1116;51.502;7.414;2024-01-30T11:00:07;6.55;;;4.07;;
2219;SDS011;1116;51.502;7.414;2024-01-30T11:02:44;5.97;;;4.03;;
2219;SDS011;1116;51.502;7.414;2024-01-30T11:05:23;8.07;;;4.07;;
2219;SDS011;1116;51.502;7.414;2024-01-30T11:08:00;9.75;;;4.50;;
2219;SDS011;1116;51.502;7.414;2024-01-30T11:10:49;8.23;;;3.85;;
2219;SDS011;1116;51.502;7.414;2024-01-30T11:13:26;7.25;;;3.58;;
2219;SDS011;1116;51.502;7.414;2024-01-30T11:18:30;11.13;;;4.25;;
2219;SDS011;1116;51.502;7.414;2024-01-30T11:21:00;10.52;;;4.10;;
2219;SDS011;1116;51.502;7.414;2024-01-30T11:23:33;11.57;;;3.88;;
2219;SDS011;1116;51.502;7.414;2024-01-30T11:26:07;11.48;;;3.95;;
2219;SDS011;1116;51.502;7.414;2024-01-30T11:28:52;17.33;;;3.72;;
2219;SDS011;1116;51.502;7.414;2024-01-30T11:31:25;8.77;;;3.13;;
2219;SDS011;1116;51.502;7.414;2024-01-30T11:33:57;9.02;;;3.63;;
2219;SDS011;1116;51.502;7.414;2024-01-30T11:36:28;8.90;;;3.60;;
2219;SDS011;1116;51.502;7.414;2024-01-30T11:39:01;7.85;;;3.78;;
2219;SDS011;1116;51.502;7.414;2024-01-30T11:41:34;8.13;;;3.60;;
2219;SDS011;1116;51.502;7.414;2024-01-30T11:44:06;13.07;;;4.47;;
2219;SDS011;1116;51.502;7.414;2024-01-30T11:46:37;11.70;;;4.13;;
2219;SDS011;1116;51.502;7.414;2024-01-30T11:49:07;9.45;;;3.60;;
2219;SDS011;1116;51.502;7.414;2024-01-30T11:51:37;12.32;;;4.07;;
2219;SDS011;1116;51.502;7.414;2024-01-30T11:54:07;9.60;;;4.20;;
2219;SDS011;1116;51.502;7.414;2024-01-30T11:56:39;8.57;;;3.28;;
2219;SDS011;1116;51.502;7.414;2024-01-30T11:59:09;12.05;;;4.32;;
2219;SDS011;1116;51.502;7.414;2024-01-30T12:01:39;12.02;;;4.32;;
2219;SDS011;1116;51.502;7.414;2024-01-30T12:04:10;14.85;;;4.70;;
2219;SDS011;1116;51.502;7.414;2024-01-30T12:06:40;17.77;;;4.30;;
2219;SDS011;1116;51.502;7.414;2024-01-30T12:09:10;10.65;;;4.68;;
2219;SDS011;1116;51.502;7.414;2024-01-30T12:11:46;16.85;;;5.25;;
2219;SDS011;1116;51.502;7.414;2024-01-30T12:14:16;21.35;;;6.13;;
2219;SDS011;1116;51.502;7.414;2024-01-30T12:16:48;15.40;;;5.45;;
2219;SDS011;1116;51.502;7.414;2024-01-30T12:19:22;9.50;;;4.10;;
2219;SDS011;1116;51.502;7.414;2024-01-30T12:21:55;10.82;;;4.13;;
2219;SDS011;1116;51.502;7.414;2024-01-30T12:24:26;10.75;;;4.35;;
2219;SDS011;1116;51.502;7.414;2024-01-30T12:26:59;11.38;;;4.60;;
2219;SDS011;1116;51.502;7.414;2024-01-30T12:29:31;10.23;;;3.70;;
2219;SDS011;1116;51.502;7.414;2024-01-30T12:32:06;13.13;;;3.95;;
2219;SDS011;1116;51.502;7.414;2024-01-30T12:34:39;15.90;;;4.32;;
2219;SDS011;1116;51.502;7.414;2024-01-30T12:37:25;14.02;;;4.55;;
2219;SDS011;1116;51.502;7.414;2024-01-30T12:39:56;14.25;;;4.97;;
2219;SDS011;1116;51.502;7.414;2024-01-30T12:42:29;12.63;;;5.50;;
2219;SDS011;1116;51.502;7.414;2024-01-30T12:44:59;12.35;;;4.78;;
2219;SDS011;1116;51.502;7.414;2024-01-30T12:47:29;17.35;;;4.65;;
2219;SDS011;1116;51.502;7.414;2024-01-30T12:49:59;14.43;;;5.38;;
2219;SDS011;1116;51.502;7.414;2024-01-30T12:52:29;16.83;;;4.70;;
2219;SDS011;1116;51.502;7.414;2024-01-30T12:55:00;11.25;;;5.07;;
2219;SDS011;1116;51.502;7.414;2024-01-30T12:57:33;14.02;;;4.88;;
2219;SDS011;1116;51.502;7.414;2024-01-30T13:00:06;11.73;;;4.90;;
2219;SDS011;1116;51.502;7.414;2024-01-30T13:02:43;14.55;;;4.72;;
2219;SDS011;1116;51.502;7.414;2024-01-30T13:05:17;12.90;;;4.90;;
2219;SDS011;1116;51.502;7.414;2024-01-30T13:07:47;10.70;;;5.30;;
2219;SDS011;1116;51.502;7.414;2024-01-30T13:10:18;14.93;;;5.05;;
2219;SDS011;1116;51.502;7.414;2024-01-30T13:12:53;11.80;;;5.13;;
2219;SDS011;1116;51.502;7.414;2024-01-30T13:15:23;13.18;;;4.50;;
2219;SDS011;1116;51.502;7.414;2024-01-30T13:17:53;13.70;;;5.03;;
2219;SDS011;1116;51.502;7.414;2024-01-30T13:20:26;12.07;;;5.15;;
2219;SDS011;1116;51.502;7.414;2024-01-30T13:22:57;16.00;;;5.07;;
2219;SDS011;1116;51.502;7.414;2024-01-30T13:25:27;14.80;;;5.78;;
2219;SDS011;1116;51.502;7.414;2024-01-30T13:28:00;12.25;;;4.50;;
2219;SDS011;1116;51.502;7.414;2024-01-30T13:30:30;16.23;;;5.47;;
2219;SDS011;1116;51.502;7.414;2024-01-30T13:33:04;11.25;;;4.68;;
2219;SDS011;1116;51.502;7.414;2024-01-30T13:35:34;12.40;;;5.03;;
2219;SDS011;1116;51.502;7.414;2024-01-30T13:38:04;15.30;;;5.40;;
2219;SDS011;1116;51.502;7.414;2024-01-30T13:40:34;14.98;;;5.28;;
2219;SDS011;1116;51.502;7.414;2024-01-30T13:43:07;10.75;;;5.38;;
2219;SDS011;1116;51.502;7.414;2024-01-30T13:45:37;9.88;;;4.97;;
2219;SDS011;1116;51.502;7.414;2024-01-30T13:48:08;16.15;;;5.45;;
2219;SDS011;1116;51.502;7.414;2024-01-30T13:50:39;11.25;;;5.47;;
2219;SDS011;1116;51.502;7.414;2024-01-30T13:53:09;11.13;;;4.75;;
2219;SDS011;1116;51.502;7.414;2024-01-30T13:55:54;11.65;;;5.03;;
2219;SDS011;1116;51.502;7.414;2024-01-30T13:59:01;17.67;;;4.75;;
2219;SDS011;1116;51.502;7.414;2024-01-30T14:02:05;15.82;;;5.80;;
2219;SDS011;1116;51.502;7.414;2024-01-30T14:04:37;12.73;;;5.47;;
2219;SDS011;1116;51.502;7.414;2024-01-30T14:07:07;12.75;;;4.97;;
2219;SDS011;1116;51.502;7.414;2024-01-30T14:09:37;13.57;;;5.63;;
2219;SDS011;1116;51.502;7.414;2024-01-30T14:12:08;14.27;;;5.07;;
2219;SDS011;1116;51.502;7.414;2024-01-30T14:14:41;15.70;;;5.63;;
2219;SDS011;1116;51.502;7.414;2024-01-30T14:17:11;12.85;;;5.43;;
2219;SDS011;1116;51.502;7.414;2024-01-30T14:19:41;11.20;;;5.32;;
2219;SDS011;1116;51.502;7.414;2024-01-30T14:22:11;21.30;;;6.25;;
2219;SDS011;1116;51.502;7.414;2024-01-30T14:24:41;10.65;;;5.70;;
2219;SDS011;1116;51.502;7.414;2024-01-30T14:27:12;11.35;;;5.50;;
2219;SDS011;1116;51.502;7.414;2024-01-30T14:29:45;11.85;;;5.25;;
2219;SDS011;1116;51.502;7.414;2024-01-30T14:32:15;13.70;;;5.45;;
2219;SDS011;1116;51.502;7.414;2024-01-30T14:34:45;9.13;;;5.05;;
2219;SDS011;1116;51.502;7.414;2024-01-30T14:37:16;12.85;;;4.75;;
2219;SDS011;1116;51.502;7.414;2024-01-30T14:39:46;11.30;;;4.60;;
2219;SDS011;1116;51.502;7.414;2024-01-30T14:42:17;12.73;;;5.38;;
2219;SDS011;1116;51.502;7.414;2024-01-30T14:44:50;11.70;;;4.97;;
2219;SDS011;1116;51.502;7.414;2024-01-30T14:47:20;15.52;;;5.22;;
2219;SDS011;1116;51.502;7.414;2024-01-30T14:49:50;14.75;;;5.47;;
2219;SDS011;1116;51.502;7.414;2024-01-30T14:52:20;10.32;;;5.38;;
2219;SDS011;1116;51.502;7.414;2024-01-30T14:54:50;14.38;;;4.90;;
2219;SDS011;1116;51.502;7.414;2024-01-30T14:57:20;12.75;;;5.57;;
2219;SDS011;1116;51.502;7.414;2024-01-30T14:59:55;13.15;;;5.18;;
2219;SDS011;1116;51.502;7.414;2024-01-30T15:02:26;11.23;;;5.55;;
2219;SDS011;1116;51.502;7.414;2024-01-30T15:05:08;12.75;;;5.35;;
2219;SDS011;1116;51.502;7.414;2024-01-30T15:07:49;12.40;;;4.97;;
2219;SDS011;1116;51.502;7.414;2024-01-30T15:10:32;14.85;;;6.32;;
2219;SDS011;1116;51.502;7.414;2024-01-30T15:13:03;13.90;;;6.60;;
2219;SDS011;1116;51.502;7.414;2024-01-30T15:15:36;13.60;;;6.32;;
2219;SDS011;1116;51.502;7.414;2024-01-30T15:18:07;13.13;;;5.55;;
2219;SDS011;1116;51.502;7.414;2024-01-30T15:20:38;13.90;;;6.03;;
2219;SDS011;1116;51.502;7.414;2024-01-30T15:23:08;12.15;;;6.00;;
2219;SDS011;1116;51.502;7.414;2024-01-30T15:25:38;14.70;;;6.60;;
2219;SDS011;1116;51.502;7.414;2024-01-30T15:28:08;13.68;;;5.57;;
2219;SDS011;1116;51.502;7.414;2024-01-30T15:30:45;12.25;;;6.65;;
2219;SDS011;1116;51.502;7.414;2024-01-30T15:33:16;9.48;;;5.35;;
2219;SDS011;1116;51.502;7.414;2024-01-30T15:35:55;13.15;;;6.30;;